sensor_id;sensor_type;location;lat;lon;timestamp;pressure;altitude;pressure_sealevel;temperature;humidity
65553;BME280;72126;51.560;14.368;2023-11-18T00:00:44;100764.19;;;12.53;61.08
65553;BME280;72126;51.560;14.368;2023-11-18T00:03:09;100762.38;;;12.54;60.89
65553;BME280;72126;51.560;14.368;2023-11-18T00:05:35;100756.31;;;12.53;61.13
65553;BME280;72126;51.560;14.368;2023-11-18T00:08:00;100758.09;;;12.53;60.73
65553;BME280;72126;51.560;14.368;2023-11-18T00:10:25;100755.47;;;12.53;60.86
65553;BME280;72126;51.560;14.368;2023-11-18T00:12:50;100760.72;;;12.53;61.24
65553;BME280;72126;51.560;14.368;2023-11-18T00:15:15;100763.34;;;12.53;60.79
65553;BME280;72126;51.560;14.368;2023-11-18T00:17:41;100762.53;;;12.52;61.11
65553;BME280;72126;51.560;14.368;2023-11-18T00:20:06;100772.22;;;12.52;61.21
65553;BME280;72126;51.560;14.368;2023-11-18T00:22:32;100777.47;;;12.52;60.92
65553;BME280;72126;51.560;14.368;2023-11-18T00:24:57;100782.72;;;12.52;61.15
65553;BME280;72126;51.560;14.368;2023-11-18T00:27:22;100782.72;;;12.52;61.23
65553;BME280;72126;51.560;14.368;2023-11-18T00:29:48;100796.69;;;12.52;60.88
65553;BME280;72126;51.560;14.368;2023-11-18T00:32:13;100795.84;;;12.52;61.10
65553;BME280;72126;51.560;14.368;2023-11-18T00:34:38;100802.06;;;12.51;60.91
65553;BME280;72126;51.560;14.368;2023-11-18T00:37:03;100804.84;;;12.49;61.17
65553;BME280;72126;51.560;14.368;2023-11-18T00:39:28;100807.31;;;12.51;61.04
65553;BME280;72126;51.560;14.368;2023-11-18T00:41:54;100812.56;;;12.51;61.15
65553;BME280;72126;51.560;14.368;2023-11-18T00:44:19;100806.66;;;12.49;60.91
65553;BME280;72126;51.560;14.368;2023-11-18T00:46:44;100822.25;;;12.50;60.87
65553;BME280;72126;51.560;14.368;2023-11-18T00:49:09;100827.50;;;12.50;61.23
65553;BME280;72126;51.560;14.368;2023-11-18T00:51:35;100831.13;;;12.49;61.20
65553;BME280;72126;51.560;14.368;2023-11-18T00:54:00;100831.94;;;12.50;60.78
65553;BME280;72126;51.560;14.368;2023-11-18T00:56:25;100836.38;;;12.49;61.08
65553;BME280;72126;51.560;14.368;2023-11-18T00:58:50;100839.81;;;12.50;60.94
65553;BME280;72126;51.560;14.368;2023-11-18T01:01:15;100847.69;;;12.50;61.06
65553;BME280;72126;51.560;14.368;2023-11-18T01:03:41;100843.25;;;12.50;61.06
65553;BME280;72126;51.560;14.368;2023-11-18T01:06:06;100847.84;;;12.48;61.09
65553;BME280;72126;51.560;14.368;2023-11-18T01:08:31;100847.19;;;12.46;61.16
65553;BME280;72126;51.560;14.368;2023-11-18T01:10:57;100855.75;;;12.48;60.91
65553;BME280;72126;51.560;14.368;2023-11-18T01:13:22;100854.91;;;12.48;60.79
65553;BME280;72126;51.560;14.368;2023-11-18T01:15:48;100859.34;;;12.47;61.08
65553;BME280;72126;51.560;14.368;2023-11-18T01:18:13;100857.53;;;12.48;61.17
65553;BME280;72126;51.560;14.368;2023-11-18T01:20:38;100867.22;;;12.47;60.78
65553;BME280;72126;51.560;14.368;2023-11-18T01:23:04;100871.66;;;12.47;61.00
65553;BME280;72126;51.560;14.368;2023-11-18T01:25:29;100871.50;;;12.48;60.98
65553;BME280;72126;51.560;14.368;2023-11-18T01:27:54;100874.28;;;12.47;61.15
65553;BME280;72126;51.560;14.368;2023-11-18T01:30:19;100872.59;;;12.45;61.20
65553;BME280;72126;51.560;14.368;2023-11-18T01:32:44;100877.72;;;12.47;60.94
65553;BME280;72126;51.560;14.368;2023-11-18T01:35:10;100877.84;;;12.45;61.25
65553;BME280;72126;51.560;14.368;2023-11-18T01:37:35;100873.47;;;12.46;60.83
65553;BME280;72126;51.560;14.368;2023-11-18T01:40:00;100878.72;;;12.46;61.17
65553;BME280;72126;51.560;14.368;2023-11-18T01:42:25;100872.59;;;12.45;61.21
65553;BME280;72126;51.560;14.368;2023-11-18T01:44:50;100884.91;;;12.45;60.79
65553;BME280;72126;51.560;14.368;2023-11-18T01:47:16;100884.09;;;12.44;61.19
65553;BME280;72126;51.560;14.368;2023-11-18T01:49:41;100882.28;;;12.45;60.78
65553;BME280;72126;51.560;14.368;2023-11-18T01:52:07;100876.22;;;12.44;60.81
65553;BME280;72126;51.560;14.368;2023-11-18T01:54:34;100877.84;;;12.45;61.18
65553;BME280;72126;51.560;14.368;2023-11-18T01:57:01;100890.31;;;12.43;61.13
65553;BME280;72126;51.560;14.368;2023-11-18T01:59:28;100879.81;;;12.43;61.08
65553;BME280;72126;51.560;14.368;2023-11-18T02:01:53;100885.06;;;12.43;60.81
65553;BME280;72126;51.560;14.368;2023-11-18T02:04:19;100891.97;;;12.44;60.95
65553;BME280;72126;51.560;14.368;2023-11-18T02:06:46;100889.50;;;12.43;60.89
65553;BME280;72126;51.560;14.368;2023-11-18T02:09:12;100897.38;;;12.43;61.05
65553;BME280;72126;51.560;14.368;2023-11-18T02:11:43;100902.63;;;12.43;61.18
65553;BME280;72126;51.560;14.368;2023-11-18T02:14:14;100904.44;;;12.42;60.80
65553;BME280;72126;51.560;14.368;2023-11-18T02:16:40;100900.00;;;12.43;61.00
65553;BME280;72126;51.560;14.368;2023-11-18T02:19:19;100904.44;;;12.42;61.06
65553;BME280;72126;51.560;14.368;2023-11-18T02:21:45;100909.69;;;12.42;61.12
65553;BME280;72126;51.560;14.368;2023-11-18T02:24:10;100910.50;;;12.43;61.04
65553;BME280;72126;51.560;14.368;2023-11-18T02:26:35;100909.69;;;12.42;60.95
65553;BME280;72126;51.560;14.368;2023-11-18T02:29:00;100916.75;;;12.42;61.00
65553;BME280;72126;51.560;14.368;2023-11-18T02:31:33;100907.22;;;12.41;61.09
65553;BME280;72126;51.560;14.368;2023-11-18T02:34:00;100910.69;;;12.41;60.80
65553;BME280;72126;51.560;14.368;2023-11-18T02:36:31;100914.94;;;12.42;60.89
65553;BME280;72126;51.560;14.368;2023-11-18T02:38:58;100918.56;;;12.41;61.12
65553;BME280;72126;51.560;14.368;2023-11-18T02:41:25;100922.97;;;12.41;61.03
65553;BME280;72126;51.560;14.368;2023-11-18T02:43:51;100922.97;;;12.41;60.85
65553;BME280;72126;51.560;14.368;2023-11-18T02:46:17;100919.53;;;12.40;61.22
65553;BME280;72126;51.560;14.368;2023-11-18T02:48:43;100920.50;;;12.39;61.02
65553;BME280;72126;51.560;14.368;2023-11-18T02:51:08;100924.78;;;12.40;60.80
65553;BME280;72126;51.560;14.368;2023-11-18T02:53:34;100920.50;;;12.39;61.05
65553;BME280;72126;51.560;14.368;2023-11-18T02:56:00;100922.16;;;12.40;60.86
65553;BME280;72126;51.560;14.368;2023-11-18T02:58:25;100912.59;;;12.39;60.99
65553;BME280;72126;51.560;14.368;2023-11-18T03:00:50;100916.06;;;12.40;60.92
65553;BME280;72126;51.560;14.368;2023-11-18T03:03:15;100918.69;;;12.40;60.80
65553;BME280;72126;51.560;14.368;2023-11-18T03:05:40;100925.75;;;12.39;60.78
65553;BME280;72126;51.560;14.368;2023-11-18T03:08:06;100923.13;;;12.39;61.15
65553;BME280;72126;51.560;14.368;2023-11-18T03:10:31;100926.56;;;12.40;60.97
65553;BME280;72126;51.560;14.368;2023-11-18T03:12:57;100913.75;;;12.37;60.88
65553;BME280;72126;51.560;14.368;2023-11-18T03:15:22;100918.84;;;12.38;60.87
65553;BME280;72126;51.560;14.368;2023-11-18T03:17:51;100918.84;;;12.38;61.10
65553;BME280;72126;51.560;14.368;2023-11-18T03:20:17;100921.47;;;12.38;60.80
65553;BME280;72126;51.560;14.368;2023-11-18T03:22:44;100919.66;;;12.39;60.77
65553;BME280;72126;51.560;14.368;2023-11-18T03:25:09;100926.72;;;12.38;61.16
65553;BME280;72126;51.560;14.368;2023-11-18T03:27:34;100931.97;;;12.38;61.23
65553;BME280;72126;51.560;14.368;2023-11-18T03:29:59;100926.56;;;12.40;60.80
65553;BME280;72126;51.560;14.368;2023-11-18T03:32:25;100919.66;;;12.39;60.75
65553;BME280;72126;51.560;14.368;2023-11-18T03:34:50;100928.53;;;12.38;61.17
65553;BME280;72126;51.560;14.368;2023-11-18T03:37:15;100910.59;;;12.33;60.77
65553;BME280;72126;51.560;14.368;2023-11-18T03:39:40;100924.09;;;12.38;60.75
65553;BME280;72126;51.560;14.368;2023-11-18T03:42:06;100930.31;;;12.37;61.05
65553;BME280;72126;51.560;14.368;2023-11-18T03:44:31;100933.78;;;12.38;61.24
65553;BME280;72126;51.560;14.368;2023-11-18T03:46:56;100932.13;;;12.37;60.91
65553;BME280;72126;51.560;14.368;2023-11-18T03:49:21;100937.22;;;12.38;60.76
65553;BME280;72126;51.560;14.368;2023-11-18T03:51:46;100927.69;;;12.37;61.13
65553;BME280;72126;51.560;14.368;2023-11-18T03:54:12;100922.44;;;12.37;60.77
65553;BME280;72126;51.560;14.368;2023-11-18T03:56:37;100915.56;;;12.36;61.17
65553;BME280;72126;51.560;14.368;2023-11-18T03:59:02;100926.88;;;12.37;60.86
65553;BME280;72126;51.560;14.368;2023-11-18T04:01:27;100932.94;;;12.37;61.11
65553;BME280;72126;51.560;14.368;2023-11-18T04:03:53;100936.56;;;12.36;61.11
65553;BME280;72126;51.560;14.368;2023-11-18T04:06:20;100941.81;;;12.36;61.07
65553;BME280;72126;51.560;14.368;2023-11-18T04:08:45;100934.75;;;12.37;60.77
65553;BME280;72126;51.560;14.368;2023-11-18T04:11:11;100945.41;;;12.35;61.11
65553;BME280;72126;51.560;14.368;2023-11-18T04:13:37;100955.75;;;12.37;60.82
65553;BME280;72126;51.560;14.368;2023-11-18T04:16:02;100949.69;;;12.36;60.99
65553;BME280;72126;51.560;14.368;2023-11-18T04:18:27;100956.75;;;12.36;60.80
65553;BME280;72126;51.560;14.368;2023-11-18T04:20:52;100960.19;;;12.36;61.20
65553;BME280;72126;51.560;14.368;2023-11-18T04:23:17;100957.56;;;12.36;60.97
65553;BME280;72126;51.560;14.368;2023-11-18T04:25:43;100965.44;;;12.36;61.11
65553;BME280;72126;51.560;14.368;2023-11-18T04:28:08;100955.94;;;12.35;61.19
65553;BME280;72126;51.560;14.368;2023-11-18T04:30:33;100958.56;;;12.35;60.89
65553;BME280;72126;51.560;14.368;2023-11-18T04:32:58;100956.75;;;12.36;60.92
65553;BME280;72126;51.560;14.368;2023-11-18T04:35:23;100968.06;;;12.36;61.58
65553;BME280;72126;51.560;14.368;2023-11-18T04:37:49;100963.81;;;12.35;60.97
65553;BME280;72126;51.560;14.368;2023-11-18T04:40:14;100974.31;;;12.35;60.66
65553;BME280;72126;51.560;14.368;2023-11-18T04:42:39;100975.94;;;12.36;61.20
65553;BME280;72126;51.560;14.368;2023-11-18T04:45:05;100972.50;;;12.36;61.02
65553;BME280;72126;51.560;14.368;2023-11-18T04:47:31;100976.94;;;12.35;61.27
65553;BME280;72126;51.560;14.368;2023-11-18T04:49:56;100983.00;;;12.36;60.85
65553;BME280;72126;51.560;14.368;2023-11-18T04:52:21;100982.19;;;12.35;61.13
65553;BME280;72126;51.560;14.368;2023-11-18T04:54:46;100987.44;;;12.35;61.21
65553;BME280;72126;51.560;14.368;2023-11-18T04:57:11;100990.88;;;12.36;61.13
65553;BME280;72126;51.560;14.368;2023-11-18T04:59:37;100986.59;;;12.35;60.80
65553;BME280;72126;51.560;14.368;2023-11-18T05:02:02;100996.13;;;12.36;61.17
65553;BME280;72126;51.560;14.368;2023-11-18T05:04:27;100992.69;;;12.35;60.80
65553;BME280;72126;51.560;14.368;2023-11-18T05:06:52;100996.25;;;12.34;61.01
65553;BME280;72126;51.560;14.368;2023-11-18T05:09:17;100993.63;;;12.34;60.90
65553;BME280;72126;51.560;14.368;2023-11-18T05:11:43;100997.13;;;12.35;60.91
65553;BME280;72126;51.560;14.368;2023-11-18T05:14:08;100996.25;;;12.34;61.11
65553;BME280;72126;51.560;14.368;2023-11-18T05:16:33;100987.56;;;12.34;61.02
65553;BME280;72126;51.560;14.368;2023-11-18T05:18:58;100991.88;;;12.35;61.03
65553;BME280;72126;51.560;14.368;2023-11-18T05:21:23;100990.19;;;12.34;60.96
65553;BME280;72126;51.560;14.368;2023-11-18T05:23:48;100992.97;;;12.32;60.89
65553;BME280;72126;51.560;14.368;2023-11-18T05:26:14;100991.00;;;12.34;61.08
65553;BME280;72126;51.560;14.368;2023-11-18T05:28:39;100992.00;;;12.33;60.89
65553;BME280;72126;51.560;14.368;2023-11-18T05:31:04;100991.00;;;12.34;60.85
65553;BME280;72126;51.560;14.368;2023-11-18T05:33:29;100997.25;;;12.33;60.91
65553;BME280;72126;51.560;14.368;2023-11-18T05:35:54;100989.38;;;12.33;61.11
65553;BME280;72126;51.560;14.368;2023-11-18T05:38:20;100993.78;;;12.33;60.98
65553;BME280;72126;51.560;14.368;2023-11-18T05:40:46;100994.63;;;12.33;61.16
65553;BME280;72126;51.560;14.368;2023-11-18T05:43:11;101005.13;;;12.33;60.97
65553;BME280;72126;51.560;14.368;2023-11-18T05:45:36;101002.50;;;12.33;60.84
65553;BME280;72126;51.560;14.368;2023-11-18T05:48:01;101005.13;;;12.33;61.44
65553;BME280;72126;51.560;14.368;2023-11-18T05:50:26;101005.94;;;12.34;60.78
65553;BME280;72126;51.560;14.368;2023-11-18T05:52:53;100993.78;;;12.33;61.04
65553;BME280;72126;51.560;14.368;2023-11-18T05:55:18;101000.03;;;12.32;60.87
65553;BME280;72126;51.560;14.368;2023-11-18T05:57:44;101005.13;;;12.33;61.19
65553;BME280;72126;51.560;14.368;2023-11-18T06:00:09;100995.44;;;12.34;61.03
65553;BME280;72126;51.560;14.368;2023-11-18T06:02:35;100995.59;;;12.32;60.80
65553;BME280;72126;51.560;14.368;2023-11-18T06:05:00;100997.25;;;12.33;61.13
65553;BME280;72126;51.560;14.368;2023-11-18T06:07:25;100992.81;;;12.34;60.78
65553;BME280;72126;51.560;14.368;2023-11-18T06:09:50;100998.22;;;12.32;60.69
65553;BME280;72126;51.560;14.368;2023-11-18T06:12:15;101000.84;;;12.32;61.06
65553;BME280;72126;51.560;14.368;2023-11-18T06:14:40;101012.16;;;12.33;60.87
65553;BME280;72126;51.560;14.368;2023-11-18T06:17:06;101008.72;;;12.32;60.79
65553;BME280;72126;51.560;14.368;2023-11-18T06:19:31;101005.28;;;12.32;61.10
65553;BME280;72126;51.560;14.368;2023-11-18T06:21:56;101010.53;;;12.32;61.15
65553;BME280;72126;51.560;14.368;2023-11-18T06:24:21;101008.72;;;12.32;60.80
65553;BME280;72126;51.560;14.368;2023-11-18T06:26:47;101011.34;;;12.32;60.84
65553;BME280;72126;51.560;14.368;2023-11-18T06:29:12;101013.16;;;12.32;61.14
65553;BME280;72126;51.560;14.368;2023-11-18T06:31:37;101014.41;;;12.28;60.86
65553;BME280;72126;51.560;14.368;2023-11-18T06:34:02;101009.69;;;12.31;60.86
65553;BME280;72126;51.560;14.368;2023-11-18T06:36:27;101017.41;;;12.33;60.64
65553;BME280;72126;51.560;14.368;2023-11-18T06:38:53;101025.47;;;12.31;60.81
65553;BME280;72126;51.560;14.368;2023-11-18T06:41:20;101024.63;;;12.31;60.96
65553;BME280;72126;51.560;14.368;2023-11-18T06:43:46;101031.53;;;12.32;60.96
65553;BME280;72126;51.560;14.368;2023-11-18T06:46:11;101027.25;;;12.31;60.74
65553;BME280;72126;51.560;14.368;2023-11-18T06:48:36;101027.25;;;12.31;60.73
65553;BME280;72126;51.560;14.368;2023-11-18T06:51:02;101031.53;;;12.32;60.99
65553;BME280;72126;51.560;14.368;2023-11-18T06:53:27;101035.13;;;12.31;60.93
65553;BME280;72126;51.560;14.368;2023-11-18T06:55:52;101036.94;;;12.30;61.00
65553;BME280;72126;51.560;14.368;2023-11-18T06:58:17;101035.97;;;12.31;60.93
65553;BME280;72126;51.560;14.368;2023-11-18T07:00:42;101035.13;;;12.31;60.99
65553;BME280;72126;51.560;14.368;2023-11-18T07:03:08;101037.75;;;12.31;60.81
65553;BME280;72126;51.560;14.368;2023-11-18T07:05:33;101046.47;;;12.31;61.00
65553;BME280;72126;51.560;14.368;2023-11-18T07:07:58;101047.28;;;12.32;60.96
65553;BME280;72126;51.560;14.368;2023-11-18T07:10:23;101053.50;;;12.31;60.86
65553;BME280;72126;51.560;14.368;2023-11-18T07:12:48;101060.56;;;12.30;60.93
65553;BME280;72126;51.560;14.368;2023-11-18T07:15:14;101065.81;;;12.30;60.90
65553;BME280;72126;51.560;14.368;2023-11-18T07:17:40;101064.00;;;12.31;61.19
65553;BME280;72126;51.560;14.368;2023-11-18T07:20:05;101069.28;;;12.31;61.06
65553;BME280;72126;51.560;14.368;2023-11-18T07:22:30;101063.19;;;12.30;60.96
65553;BME280;72126;51.560;14.368;2023-11-18T07:24:56;101066.66;;;12.31;61.09
65553;BME280;72126;51.560;14.368;2023-11-18T07:27:21;101062.38;;;12.30;60.87
65553;BME280;72126;51.560;14.368;2023-11-18T07:29:46;101066.78;;;12.29;60.99
65553;BME280;72126;51.560;14.368;2023-11-18T07:32:11;101062.38;;;12.30;60.92
65553;BME280;72126;51.560;14.368;2023-11-18T07:34:36;101070.25;;;12.30;61.00
65553;BME280;72126;51.560;14.368;2023-11-18T07:37:02;101075.63;;;12.28;60.88
65553;BME280;72126;51.560;14.368;2023-11-18T07:39:27;101069.56;;;12.28;61.13
65553;BME280;72126;51.560;14.368;2023-11-18T07:41:53;101073.81;;;12.29;60.72
65553;BME280;72126;51.560;14.368;2023-11-18T07:44:18;101078.25;;;12.28;60.67
65553;BME280;72126;51.560;14.368;2023-11-18T07:46:43;101077.28;;;12.29;61.09
65553;BME280;72126;51.560;14.368;2023-11-18T07:49:08;101086.94;;;12.29;61.01
65553;BME280;72126;51.560;14.368;2023-11-18T07:51:33;101090.44;;;12.29;60.69
65553;BME280;72126;51.560;14.368;2023-11-18T07:53:59;101091.25;;;12.30;60.67
65553;BME280;72126;51.560;14.368;2023-11-18T07:56:24;101086.94;;;12.29;60.71
65553;BME280;72126;51.560;14.368;2023-11-18T07:58:49;101091.38;;;12.28;60.86
65553;BME280;72126;51.560;14.368;2023-11-18T08:01:14;101091.38;;;12.28;60.85
65553;BME280;72126;51.560;14.368;2023-11-18T08:03:40;101085.19;;;12.29;60.86
65553;BME280;72126;51.560;14.368;2023-11-18T08:06:05;101086.94;;;12.29;60.84
65553;BME280;72126;51.560;14.368;2023-11-18T08:08:30;101088.75;;;12.28;60.68
65553;BME280;72126;51.560;14.368;2023-11-18T08:10:55;101086.13;;;12.28;60.67
65553;BME280;72126;51.560;14.368;2023-11-18T08:13:21;101094.00;;;12.28;60.88
65553;BME280;72126;51.560;14.368;2023-11-18T08:15:46;101102.84;;;12.27;60.20
65553;BME280;72126;51.560;14.368;2023-11-18T08:18:12;101116.97;;;12.26;60.77
65553;BME280;72126;51.560;14.368;2023-11-18T08:20:38;101122.06;;;12.28;60.88
65553;BME280;72126;51.560;14.368;2023-11-18T08:23:03;101118.44;;;12.29;60.87
65553;BME280;72126;51.560;14.368;2023-11-18T08:25:29;101124.69;;;12.28;60.74
65553;BME280;72126;51.560;14.368;2023-11-18T08:27:54;101135.06;;;12.29;60.55
65553;BME280;72126;51.560;14.368;2023-11-18T08:30:19;101134.50;;;12.26;60.68
65553;BME280;72126;51.560;14.368;2023-11-18T08:32:45;101137.81;;;12.28;60.73
65553;BME280;72126;51.560;14.368;2023-11-18T08:35:11;101142.25;;;12.27;60.79
65553;BME280;72126;51.560;14.368;2023-11-18T08:37:38;101138.63;;;12.28;60.61
65553;BME280;72126;51.560;14.368;2023-11-18T08:40:04;101139.63;;;12.27;60.93
65553;BME280;72126;51.560;14.368;2023-11-18T08:42:30;101147.50;;;12.27;60.82
65553;BME280;72126;51.560;14.368;2023-11-18T08:44:55;101149.13;;;12.28;60.60
65553;BME280;72126;51.560;14.368;2023-11-18T08:47:20;101141.41;;;12.27;60.99
65553;BME280;72126;51.560;14.368;2023-11-18T08:49:46;101152.75;;;12.27;60.91
65553;BME280;72126;51.560;14.368;2023-11-18T08:52:11;101149.28;;;12.27;60.78
65553;BME280;72126;51.560;14.368;2023-11-18T08:54:36;101151.09;;;12.26;60.58
65553;BME280;72126;51.560;14.368;2023-11-18T08:57:03;101158.00;;;12.27;60.55
65553;BME280;72126;51.560;14.368;2023-11-18T08:59:29;101152.75;;;12.27;60.70
65553;BME280;72126;51.560;14.368;2023-11-18T09:01:54;101154.53;;;12.27;60.61
65553;BME280;72126;51.560;14.368;2023-11-18T09:04:19;101156.34;;;12.26;60.57
65553;BME280;72126;51.560;14.368;2023-11-18T09:06:44;101157.31;;;12.25;60.75
65553;BME280;72126;51.560;14.368;2023-11-18T09:09:09;101162.41;;;12.27;60.62
65553;BME280;72126;51.560;14.368;2023-11-18T09:11:35;101161.59;;;12.26;60.61
65553;BME280;72126;51.560;14.368;2023-11-18T09:14:00;101162.41;;;12.27;60.65
65553;BME280;72126;51.560;14.368;2023-11-18T09:16:25;101159.78;;;12.27;60.72
65553;BME280;72126;51.560;14.368;2023-11-18T09:18:51;101161.59;;;12.26;60.78
65553;BME280;72126;51.560;14.368;2023-11-18T09:21:16;101159.94;;;12.25;60.84
65553;BME280;72126;51.560;14.368;2023-11-18T09:23:42;101172.09;;;12.26;60.63
65553;BME280;72126;51.560;14.368;2023-11-18T09:26:08;101176.53;;;12.26;60.80
65553;BME280;72126;51.560;14.368;2023-11-18T09:28:34;101178.31;;;12.25;60.65
65553;BME280;72126;51.560;14.368;2023-11-18T09:31:00;101183.56;;;12.25;60.70
65553;BME280;72126;51.560;14.368;2023-11-18T09:33:26;101180.13;;;12.25;60.42
65553;BME280;72126;51.560;14.368;2023-11-18T09:35:52;101180.13;;;12.25;60.99
65553;BME280;72126;51.560;14.368;2023-11-18T09:38:18;101184.56;;;12.24;60.16
65553;BME280;72126;51.560;14.368;2023-11-18T09:40:44;101181.78;;;12.26;60.68
65553;BME280;72126;51.560;14.368;2023-11-18T09:43:12;101189.66;;;12.26;60.86
65553;BME280;72126;51.560;14.368;2023-11-18T09:45:37;101186.19;;;12.25;60.47
65553;BME280;72126;51.560;14.368;2023-11-18T09:48:04;101180.94;;;12.25;60.97
65553;BME280;72126;51.560;14.368;2023-11-18T09:50:30;101187.19;;;12.24;60.68
65553;BME280;72126;51.560;14.368;2023-11-18T09:53:00;101182.75;;;12.25;60.88
65553;BME280;72126;51.560;14.368;2023-11-18T09:55:41;101187.84;;;12.26;60.58
65553;BME280;72126;51.560;14.368;2023-11-18T09:58:15;101187.03;;;12.26;60.70
65553;BME280;72126;51.560;14.368;2023-11-18T10:00:41;101181.94;;;12.24;60.75
65553;BME280;72126;51.560;14.368;2023-11-18T10:03:07;101187.03;;;12.26;60.90
65553;BME280;72126;51.560;14.368;2023-11-18T10:05:33;101189.66;;;12.26;60.79
65553;BME280;72126;51.560;14.368;2023-11-18T10:07:58;101187.03;;;12.26;60.87
65553;BME280;72126;51.560;14.368;2023-11-18T10:10:33;101180.94;;;12.25;60.75
65553;BME280;72126;51.560;14.368;2023-11-18T10:12:58;101181.78;;;12.26;60.55
65553;BME280;72126;51.560;14.368;2023-11-18T10:15:24;101174.88;;;12.25;60.64
65553;BME280;72126;51.560;14.368;2023-11-18T10:17:51;101187.03;;;12.26;60.89
65553;BME280;72126;51.560;14.368;2023-11-18T10:20:16;101180.13;;;12.25;60.84
65553;BME280;72126;51.560;14.368;2023-11-18T10:22:41;101183.72;;;12.24;60.57
65553;BME280;72126;51.560;14.368;2023-11-18T10:25:07;101179.97;;;12.26;60.53
65553;BME280;72126;51.560;14.368;2023-11-18T10:27:33;101181.78;;;12.26;60.66
65553;BME280;72126;51.560;14.368;2023-11-18T10:30:03;101181.78;;;12.26;60.57
65553;BME280;72126;51.560;14.368;2023-11-18T10:32:29;101188.66;;;12.27;60.53
65553;BME280;72126;51.560;14.368;2023-11-18T10:34:58;101188.66;;;12.27;60.47
65553;BME280;72126;51.560;14.368;2023-11-18T10:37:27;101192.13;;;12.27;60.53
65553;BME280;72126;51.560;14.368;2023-11-18T10:39:52;101182.59;;;12.26;60.47
65553;BME280;72126;51.560;14.368;2023-11-18T10:42:18;101176.53;;;12.26;60.68
65553;BME280;72126;51.560;14.368;2023-11-18T10:44:58;101164.22;;;12.26;60.91
65553;BME280;72126;51.560;14.368;2023-11-18T10:47:26;101165.88;;;12.27;60.66
65553;BME280;72126;51.560;14.368;2023-11-18T10:49:53;101172.75;;;12.28;60.65
65553;BME280;72126;51.560;14.368;2023-11-18T10:52:19;101156.34;;;12.26;60.37
65553;BME280;72126;51.560;14.368;2023-11-18T10:54:51;101153.72;;;12.26;60.45
65553;BME280;72126;51.560;14.368;2023-11-18T10:57:17;101159.63;;;12.28;60.57
65553;BME280;72126;51.560;14.368;2023-11-18T11:00:04;101153.56;;;12.28;60.47
65553;BME280;72126;51.560;14.368;2023-11-18T11:02:30;101149.13;;;12.28;60.46
65553;BME280;72126;51.560;14.368;2023-11-18T11:04:56;101151.75;;;12.28;60.70
65553;BME280;72126;51.560;14.368;2023-11-18T11:07:21;101158.81;;;12.28;60.39
65553;BME280;72126;51.560;14.368;2023-11-18T11:09:48;101164.22;;;12.26;60.62
65553;BME280;72126;51.560;14.368;2023-11-18T11:12:13;101159.63;;;12.28;60.42
65553;BME280;72126;51.560;14.368;2023-11-18T11:14:54;101162.25;;;12.28;60.40
65553;BME280;72126;51.560;14.368;2023-11-18T11:17:22;101162.13;;;12.30;60.38
65553;BME280;72126;51.560;14.368;2023-11-18T11:19:55;101157.00;;;12.28;60.71
65553;BME280;72126;51.560;14.368;2023-11-18T11:22:37;101164.88;;;12.28;60.64
65553;BME280;72126;51.560;14.368;2023-11-18T11:25:22;101169.19;;;12.29;60.61
65553;BME280;72126;51.560;14.368;2023-11-18T11:28:04;101177.06;;;12.29;60.36
65553;BME280;72126;51.560;14.368;2023-11-18T11:30:44;101163.94;;;12.29;60.45
65553;BME280;72126;51.560;14.368;2023-11-18T11:33:20;101170.00;;;12.30;60.64
65553;BME280;72126;51.560;14.368;2023-11-18T11:35:49;101171.94;;;12.28;60.63
65553;BME280;72126;51.560;14.368;2023-11-18T11:38:18;101171.66;;;12.31;60.64
65553;BME280;72126;51.560;14.368;2023-11-18T11:40:44;101177.06;;;12.29;60.71
65553;BME280;72126;51.560;14.368;2023-11-18T11:43:10;101179.53;;;12.31;60.52
65553;BME280;72126;51.560;14.368;2023-11-18T11:45:36;101176.09;;;12.30;60.50
65553;BME280;72126;51.560;14.368;2023-11-18T11:48:03;101177.91;;;12.30;60.61
65553;BME280;72126;51.560;14.368;2023-11-18T11:50:32;101175.28;;;12.30;60.68
65553;BME280;72126;51.560;14.368;2023-11-18T11:53:07;101177.91;;;12.30;60.60
65553;BME280;72126;51.560;14.368;2023-11-18T11:55:49;101167.38;;;12.30;60.68
65553;BME280;72126;51.560;14.368;2023-11-18T11:58:34;101170.84;;;12.30;60.50
65553;BME280;72126;51.560;14.368;2023-11-18T12:01:00;101179.38;;;12.32;60.51
65553;BME280;72126;51.560;14.368;2023-11-18T12:03:26;101185.63;;;12.31;60.61
65553;BME280;72126;51.560;14.368;2023-11-18T12:05:55;101168.06;;;12.32;60.73
65553;BME280;72126;51.560;14.368;2023-11-18T12:08:22;101170.69;;;12.32;60.54
65553;BME280;72126;51.560;14.368;2023-11-18T12:10:54;101169.88;;;12.31;60.48
65553;BME280;72126;51.560;14.368;2023-11-18T12:13:19;101168.88;;;12.32;60.54
65553;BME280;72126;51.560;14.368;2023-11-18T12:15:51;101168.06;;;12.32;60.43
65553;BME280;72126;51.560;14.368;2023-11-18T12:18:17;101158.38;;;12.32;60.54
65553;BME280;72126;51.560;14.368;2023-11-18T12:20:44;101150.50;;;12.32;60.20
65553;BME280;72126;51.560;14.368;2023-11-18T12:23:09;101150.66;;;12.31;60.43
65553;BME280;72126;51.560;14.368;2023-11-18T12:25:35;101150.50;;;12.32;60.32
65553;BME280;72126;51.560;14.368;2023-11-18T12:28:07;101140.00;;;12.32;60.52
65553;BME280;72126;51.560;14.368;2023-11-18T12:33:02;101127.69;;;12.33;60.44
65553;BME280;72126;51.560;14.368;2023-11-18T12:35:27;101119.00;;;12.32;59.87
65553;BME280;72126;51.560;14.368;2023-11-18T12:38:11;101123.28;;;12.33;60.19